sensor_id;sensor_type;location;lat;lon;timestamp;pressure;altitude;pressure_sealevel;temperature;humidity
11487;BME280;10510;47.942;9.442;2022-12-18T00:01:33;95444.53;;;-6.49;100.00
11487;BME280;10510;47.942;9.442;2022-12-18T00:03:35;95452.19;;;-6.51;100.00
11487;BME280;10510;47.942;9.442;2022-12-18T00:05:36;95438.63;;;-6.50;100.00
11487;BME280;10510;47.942;9.442;2022-12-18T00:07:36;95444.53;;;-6.49;100.00
11487;BME280;10510;47.942;9.442;2022-12-18T00:09:37;95442.72;;;-6.47;100.00
11487;BME280;10510;47.942;9.442;2022-12-18T00:11:37;95440.91;;;-6.44;100.00
11487;BME280;10510;47.942;9.442;2022-12-18T00:13:38;95448.53;;;-6.44;100.00
11487;BME280;10510;47.942;9.442;2022-12-18T00:15:39;95434.97;;;-6.44;100.00
11487;BME280;10510;47.942;9.442;2022-12-18T00:17:39;95443.38;;;-6.42;100.00
11487;BME280;10510;47.942;9.442;2022-12-18T00:19:40;95444.19;;;-6.42;100.00
11487;BME280;10510;47.942;9.442;2022-12-18T00:21:41;95440.72;;;-6.39;100.00
11487;BME280;10510;47.942;9.442;2022-12-18T00:23:42;95445.75;;;-6.37;100.00
11487;BME280;10510;47.942;9.442;2022-12-18T00:25:43;95447.47;;;-6.38;100.00
11487;BME280;10510;47.942;9.442;2022-12-18T00:27:43;95448.34;;;-6.39;100.00
11487;BME280;10510;47.942;9.442;2022-12-18T00:29:43;95445.75;;;-6.37;100.00
11487;BME280;10510;47.942;9.442;2022-12-18T00:31:44;95444.81;;;-6.35;100.00
11487;BME280;10510;47.942;9.442;2022-12-18T00:33:45;95449.03;;;-6.35;100.00
11487;BME280;10510;47.942;9.442;2022-12-18T00:35:45;95450.63;;;-6.33;100.00
11487;BME280;10510;47.942;9.442;2022-12-18T00:37:45;95450.72;;;-6.34;100.00
11487;BME280;10510;47.942;9.442;2022-12-18T00:39:47;95454.78;;;-6.30;100.00
11487;BME280;10510;47.942;9.442;2022-12-18T00:41:48;95462.28;;;-6.27;100.00
11487;BME280;10510;47.942;9.442;2022-12-18T00:44:10;95464.09;;;-6.29;100.00
11487;BME280;10510;47.942;9.442;2022-12-18T00:46:11;95466.56;;;-6.28;100.00
11487;BME280;10510;47.942;9.442;2022-12-18T00:48:11;95465.59;;;-6.25;100.00
11487;BME280;10510;47.942;9.442;2022-12-18T00:50:11;95462.16;;;-6.24;100.00
11487;BME280;10510;47.942;9.442;2022-12-18T00:52:12;95463.00;;;-6.24;100.00
11487;BME280;10510;47.942;9.442;2022-12-18T00:54:12;95460.41;;;-6.22;100.00
11487;BME280;10510;47.942;9.442;2022-12-18T00:56:13;95467.25;;;-6.24;100.00
11487;BME280;10510;47.942;9.442;2022-12-18T00:58:15;95460.53;;;-6.25;100.00
11487;BME280;10510;47.942;9.442;2022-12-18T01:00:16;95462.16;;;-6.24;100.00
11487;BME280;10510;47.942;9.442;2022-12-18T01:02:16;95455.34;;;-6.24;100.00
11487;BME280;10510;47.942;9.442;2022-12-18T01:04:16;95468.94;;;-6.23;100.00
11487;BME280;10510;47.942;9.442;2022-12-18T01:06:16;95472.41;;;-6.26;100.00
11487;BME280;10510;47.942;9.442;2022-12-18T01:08:17;95476.75;;;-6.28;100.00
11487;BME280;10510;47.942;9.442;2022-12-18T01:10:17;95485.53;;;-6.35;100.00
11487;BME280;10510;47.942;9.442;2022-12-18T01:12:17;95485.63;;;-6.38;100.00
11487;BME280;10510;47.942;9.442;2022-12-18T01:14:18;95489.88;;;-6.38;100.00
11487;BME280;10510;47.942;9.442;2022-12-18T01:16:19;95490.72;;;-6.38;100.00
11487;BME280;10510;47.942;9.442;2022-12-18T01:18:19;95492.50;;;-6.40;100.00
11487;BME280;10510;47.942;9.442;2022-12-18T01:20:19;95488.22;;;-6.40;100.00
11487;BME280;10510;47.942;9.442;2022-12-18T01:22:20;95487.34;;;-6.38;100.00
11487;BME280;10510;47.942;9.442;2022-12-18T01:24:20;95480.47;;;-6.36;100.00
11487;BME280;10510;47.942;9.442;2022-12-18T01:26:21;95490.53;;;-6.33;100.00
11487;BME280;10510;47.942;9.442;2022-12-18T01:28:21;95490.41;;;-6.30;100.00
11487;BME280;10510;47.942;9.442;2022-12-18T01:30:21;95492.94;;;-6.30;100.00
11487;BME280;10510;47.942;9.442;2022-12-18T01:32:22;95488.69;;;-6.30;100.00
11487;BME280;10510;47.942;9.442;2022-12-18T01:34:23;95492.13;;;-6.31;100.00
11487;BME280;10510;47.942;9.442;2022-12-18T01:36:26;95492.94;;;-6.30;100.00
11487;BME280;10510;47.942;9.442;2022-12-18T01:38:28;95493.78;;;-6.30;100.00
11487;BME280;10510;47.942;9.442;2022-12-18T01:40:28;95492.94;;;-6.30;100.00
11487;BME280;10510;47.942;9.442;2022-12-18T01:42:28;95498.03;;;-6.30;100.00
11487;BME280;10510;47.942;9.442;2022-12-18T01:46:57;95505.13;;;-6.38;100.00
11487;BME280;10510;47.942;9.442;2022-12-18T01:49:00;95511.19;;;-6.41;100.00
11487;BME280;10510;47.942;9.442;2022-12-18T01:51:01;95512.03;;;-6.41;100.00
11487;BME280;10510;47.942;9.442;2022-12-18T01:53:13;95511.13;;;-6.40;100.00
11487;BME280;10510;47.942;9.442;2022-12-18T01:55:16;95522.09;;;-6.37;100.00
11487;BME280;10510;47.942;9.442;2022-12-18T01:57:18;95513.78;;;-6.43;100.00
11487;BME280;10510;47.942;9.442;2022-12-18T01:59:19;95514.03;;;-6.49;100.00
11487;BME280;10510;47.942;9.442;2022-12-18T02:01:22;95513.38;;;-6.54;100.00
11487;BME280;10510;47.942;9.442;2022-12-18T02:03:22;95507.50;;;-6.56;100.00
11487;BME280;10510;47.942;9.442;2022-12-18T02:07:55;95513.50;;;-6.57;100.00
11487;BME280;10510;47.942;9.442;2022-12-18T02:10:19;95517.69;;;-6.56;100.00
11487;BME280;10510;47.942;9.442;2022-12-18T02:12:24;95521.91;;;-6.55;100.00
11487;BME280;10510;47.942;9.442;2022-12-18T02:17:18;95520.19;;;-6.54;100.00
11487;BME280;10510;47.942;9.442;2022-12-18T02:19:47;95512.44;;;-6.51;100.00
11487;BME280;10510;47.942;9.442;2022-12-18T02:24:29;95500.53;;;-6.51;100.00
11487;BME280;10510;47.942;9.442;2022-12-18T02:26:37;95496.34;;;-6.52;100.00
11487;BME280;10510;47.942;9.442;2022-12-18T02:29:03;95497.16;;;-6.51;100.00
11487;BME280;10510;47.942;9.442;2022-12-18T02:31:09;95498.88;;;-6.52;100.00
11487;BME280;10510;47.942;9.442;2022-12-18T02:33:11;95503.97;;;-6.52;100.00
11487;BME280;10510;47.942;9.442;2022-12-18T02:35:17;95502.22;;;-6.50;100.00
11487;BME280;10510;47.942;9.442;2022-12-18T02:37:20;95510.59;;;-6.48;100.00
11487;BME280;10510;47.942;9.442;2022-12-18T02:39:21;95513.22;;;-6.49;100.00
11487;BME280;10510;47.942;9.442;2022-12-18T02:41:24;95514.03;;;-6.49;100.00
11487;BME280;10510;47.942;9.442;2022-12-18T02:43:25;95509.78;;;-6.48;100.00
11487;BME280;10510;47.942;9.442;2022-12-18T02:45:25;95507.22;;;-6.48;100.00
11487;BME280;10510;47.942;9.442;2022-12-18T02:47:29;95503.75;;;-6.46;100.00
11487;BME280;10510;47.942;9.442;2022-12-18T02:52:30;95506.13;;;-6.41;100.00
11487;BME280;10510;47.942;9.442;2022-12-18T02:54:46;95508.69;;;-6.43;100.00
11487;BME280;10510;47.942;9.442;2022-12-18T02:56:55;95509.66;;;-6.45;100.00
11487;BME280;10510;47.942;9.442;2022-12-18T02:59:00;95509.66;;;-6.45;100.00
11487;BME280;10510;47.942;9.442;2022-12-18T03:01:11;95513.91;;;-6.46;100.00
11487;BME280;10510;47.942;9.442;2022-12-18T03:03:48;95511.50;;;-6.49;100.00
11487;BME280;10510;47.942;9.442;2022-12-18T03:05:56;95514.97;;;-6.51;100.00
11487;BME280;10510;47.942;9.442;2022-12-18T03:08:10;95505.75;;;-6.54;100.00
11487;BME280;10510;47.942;9.442;2022-12-18T03:10:15;95503.28;;;-6.55;100.00
11487;BME280;10510;47.942;9.442;2022-12-18T03:14:23;95509.13;;;-6.53;100.00
11487;BME280;10510;47.942;9.442;2022-12-18T03:16:28;95512.38;;;-6.50;100.00
11487;BME280;10510;47.942;9.442;2022-12-18T03:18:39;95513.13;;;-6.48;100.00
11487;BME280;10510;47.942;9.442;2022-12-18T03:20:44;95511.38;;;-6.46;100.00
11487;BME280;10510;47.942;9.442;2022-12-18T03:22:51;95512.16;;;-6.44;100.00
11487;BME280;10510;47.942;9.442;2022-12-18T03:24:54;95514.63;;;-6.42;100.00
11487;BME280;10510;47.942;9.442;2022-12-18T03:27:06;95513.78;;;-6.43;100.00
11487;BME280;10510;47.942;9.442;2022-12-18T03:29:10;95506.28;;;-6.46;100.00
11487;BME280;10510;47.942;9.442;2022-12-18T03:31:13;95511.25;;;-6.43;100.00
11487;BME280;10510;47.942;9.442;2022-12-18T03:33:35;95506.94;;;-6.41;100.00
11487;BME280;10510;47.942;9.442;2022-12-18T03:35:40;95502.59;;;-6.38;100.00
11487;BME280;10510;47.942;9.442;2022-12-18T03:37:41;95504.31;;;-6.39;100.00
11487;BME280;10510;47.942;9.442;2022-12-18T03:39:41;95513.78;;;-6.43;100.00
11487;BME280;10510;47.942;9.442;2022-12-18T03:41:48;95522.44;;;-6.47;100.00
11487;BME280;10510;47.942;9.442;2022-12-18T03:44:21;95529.97;;;-6.44;100.00
11487;BME280;10510;47.942;9.442;2022-12-18T03:46:44;95530.81;;;-6.45;100.00
11487;BME280;10510;47.942;9.442;2022-12-18T03:48:52;95531.66;;;-6.44;100.00
11487;BME280;10510;47.942;9.442;2022-12-18T03:51:05;95527.34;;;-6.42;100.00
11487;BME280;10510;47.942;9.442;2022-12-18T03:53:36;95530.66;;;-6.40;100.00
11487;BME280;10510;47.942;9.442;2022-12-18T03:55:39;95526.47;;;-6.41;100.00
11487;BME280;10510;47.942;9.442;2022-12-18T03:57:41;95527.28;;;-6.41;100.00
11487;BME280;10510;47.942;9.442;2022-12-18T03:59:44;95523.03;;;-6.40;100.00
11487;BME280;10510;47.942;9.442;2022-12-18T04:01:47;95519.47;;;-6.36;100.00
11487;BME280;10510;47.942;9.442;2022-12-18T04:03:48;95526.09;;;-6.32;100.00
11487;BME280;10510;47.942;9.442;2022-12-18T04:05:51;95526.09;;;-6.32;100.00
11487;BME280;10510;47.942;9.442;2022-12-18T04:07:53;95517.63;;;-6.32;100.00
11487;BME280;10510;47.942;9.442;2022-12-18T04:09:55;95520.91;;;-6.29;100.00
11487;BME280;10510;47.942;9.442;2022-12-18T04:11:56;95525.91;;;-6.27;100.00
11487;BME280;10510;47.942;9.442;2022-12-18T04:13:57;95523.38;;;-6.27;100.00
11487;BME280;10510;47.942;9.442;2022-12-18T04:15:58;95520.81;;;-6.27;100.00
11487;BME280;10510;47.942;9.442;2022-12-18T04:17:58;95522.50;;;-6.26;100.00
11487;BME280;10510;47.942;9.442;2022-12-18T04:19:59;95527.50;;;-6.25;100.00
11487;BME280;10510;47.942;9.442;2022-12-18T04:21:59;95520.69;;;-6.24;100.00
11487;BME280;10510;47.942;9.442;2022-12-18T04:23:59;95527.47;;;-6.23;100.00
11487;BME280;10510;47.942;9.442;2022-12-18T04:25:59;95524.03;;;-6.22;100.00
11487;BME280;10510;47.942;9.442;2022-12-18T04:28:00;95532.47;;;-6.22;100.00
11487;BME280;10510;47.942;9.442;2022-12-18T04:30:00;95524.84;;;-6.22;100.00
11487;BME280;10510;47.942;9.442;2022-12-18T04:32:01;95526.50;;;-6.21;100.00
11487;BME280;10510;47.942;9.442;2022-12-18T04:34:01;95534.13;;;-6.21;100.00
11487;BME280;10510;47.942;9.442;2022-12-18T04:36:02;95534.84;;;-6.17;100.00
11487;BME280;10510;47.942;9.442;2022-12-18T04:38:02;95535.72;;;-6.18;100.00
11487;BME280;10510;47.942;9.442;2022-12-18T04:40:03;95537.44;;;-6.19;100.00
11487;BME280;10510;47.942;9.442;2022-12-18T04:42:03;95547.50;;;-6.15;100.00
11487;BME280;10510;47.942;9.442;2022-12-18T04:44:04;95539.03;;;-6.16;100.00
11487;BME280;10510;47.942;9.442;2022-12-18T04:46:06;95555.13;;;-6.15;100.00
11487;BME280;10510;47.942;9.442;2022-12-18T04:48:07;95544.91;;;-6.14;100.00
11487;BME280;10510;47.942;9.442;2022-12-18T04:50:07;95550.06;;;-6.15;100.00
11487;BME280;10510;47.942;9.442;2022-12-18T04:52:08;95556.75;;;-6.13;100.00
11487;BME280;10510;47.942;9.442;2022-12-18T04:54:08;95554.28;;;-6.14;100.00
11487;BME280;10510;47.942;9.442;2022-12-18T04:56:11;95552.56;;;-6.14;100.00
11487;BME280;10510;47.942;9.442;2022-12-18T04:58:11;95562.78;;;-6.15;100.00
11487;BME280;10510;47.942;9.442;2022-12-18T05:00:12;95564.47;;;-6.14;100.00
11487;BME280;10510;47.942;9.442;2022-12-18T05:02:12;95572.00;;;-6.13;100.00
11487;BME280;10510;47.942;9.442;2022-12-18T05:04:13;95572.00;;;-6.13;100.00
11487;BME280;10510;47.942;9.442;2022-12-18T05:06:13;95572.84;;;-6.12;100.00
11487;BME280;10510;47.942;9.442;2022-12-18T05:08:13;95569.53;;;-6.14;100.00
11487;BME280;10510;47.942;9.442;2022-12-18T05:10:13;95577.09;;;-6.13;100.00
11487;BME280;10510;47.942;9.442;2022-12-18T05:12:14;95580.56;;;-6.14;100.00
11487;BME280;10510;47.942;9.442;2022-12-18T05:14:15;95572.97;;;-6.15;100.00
11487;BME280;10510;47.942;9.442;2022-12-18T05:16:15;95568.66;;;-6.13;100.00
11487;BME280;10510;47.942;9.442;2022-12-18T05:18:15;95566.91;;;-6.13;100.00
11487;BME280;10510;47.942;9.442;2022-12-18T05:20:16;95562.66;;;-6.12;100.00
11487;BME280;10510;47.942;9.442;2022-12-18T05:22:16;95571.19;;;-6.13;100.00
11487;BME280;10510;47.942;9.442;2022-12-18T05:24:16;95561.13;;;-6.17;100.00
11487;BME280;10510;47.942;9.442;2022-12-18T05:26:17;95568.88;;;-6.20;100.00
11487;BME280;10510;47.942;9.442;2022-12-18T05:28:18;95574.84;;;-6.21;100.00
11487;BME280;10510;47.942;9.442;2022-12-18T05:30:18;95574.03;;;-6.21;100.00
11487;BME280;10510;47.942;9.442;2022-12-18T05:32:18;95574.97;;;-6.24;100.00
11487;BME280;10510;47.942;9.442;2022-12-18T05:34:19;95576.69;;;-6.24;100.00
11487;BME280;10510;47.942;9.442;2022-12-18T05:36:19;95580.91;;;-6.23;100.00
11487;BME280;10510;47.942;9.442;2022-12-18T05:38:20;95576.66;;;-6.23;100.00
11487;BME280;10510;47.942;9.442;2022-12-18T05:40:21;95578.25;;;-6.20;100.00
11487;BME280;10510;47.942;9.442;2022-12-18T05:42:21;95579.78;;;-6.16;100.00
11487;BME280;10510;47.942;9.442;2022-12-18T05:44:22;95574.69;;;-6.16;100.00
11487;BME280;10510;47.942;9.442;2022-12-18T05:46:22;95577.22;;;-6.16;100.00
11487;BME280;10510;47.942;9.442;2022-12-18T05:48:23;95578.13;;;-6.17;100.00
11487;BME280;10510;47.942;9.442;2022-12-18T05:50:23;95573.03;;;-6.17;100.00
11487;BME280;10510;47.942;9.442;2022-12-18T05:52:23;95575.50;;;-6.15;100.00
11487;BME280;10510;47.942;9.442;2022-12-18T05:54:27;95581.53;;;-6.18;100.00
11487;BME280;10510;47.942;9.442;2022-12-18T05:56:27;95582.38;;;-6.18;100.00
11487;BME280;10510;47.942;9.442;2022-12-18T05:58:27;95589.28;;;-6.21;100.00
11487;BME280;10510;47.942;9.442;2022-12-18T06:00:28;95585.94;;;-6.22;100.00
11487;BME280;10510;47.942;9.442;2022-12-18T06:02:28;95587.66;;;-6.22;100.00
11487;BME280;10510;47.942;9.442;2022-12-18T06:04:31;95586.00;;;-6.23;100.00
11487;BME280;10510;47.942;9.442;2022-12-18T06:06:32;95590.22;;;-6.24;100.00
11487;BME280;10510;47.942;9.442;2022-12-18T06:08:32;95591.97;;;-6.24;100.00
11487;BME280;10510;47.942;9.442;2022-12-18T06:10:32;95589.41;;;-6.24;100.00
11487;BME280;10510;47.942;9.442;2022-12-18T06:12:33;95587.88;;;-6.28;100.00
11487;BME280;10510;47.942;9.442;2022-12-18T06:14:35;95587.19;;;-6.32;100.00
11487;BME280;10510;47.942;9.442;2022-12-18T06:16:36;95589.84;;;-6.35;100.00
11487;BME280;10510;47.942;9.442;2022-12-18T06:18:36;95591.53;;;-6.35;100.00
11487;BME280;10510;47.942;9.442;2022-12-18T06:20:36;95595.69;;;-6.33;100.00
11487;BME280;10510;47.942;9.442;2022-12-18T06:22:39;95593.88;;;-6.29;100.00
11487;BME280;10510;47.942;9.442;2022-12-18T06:24:39;95596.22;;;-6.25;100.00
11487;BME280;10510;47.942;9.442;2022-12-18T06:26:40;95611.50;;;-6.25;100.00
11487;BME280;10510;47.942;9.442;2022-12-18T06:28:40;95607.22;;;-6.24;100.00
11487;BME280;10510;47.942;9.442;2022-12-18T06:30:43;95608.91;;;-6.23;100.00
11487;BME280;10510;47.942;9.442;2022-12-18T06:32:44;95604.69;;;-6.24;100.00
11487;BME280;10510;47.942;9.442;2022-12-18T06:34:44;95595.41;;;-6.25;100.00
11487;BME280;10510;47.942;9.442;2022-12-18T06:36:44;95602.22;;;-6.26;100.00
11487;BME280;10510;47.942;9.442;2022-12-18T06:38:45;95599.72;;;-6.27;100.00
11487;BME280;10510;47.942;9.442;2022-12-18T06:40:45;95603.16;;;-6.28;100.00
11487;BME280;10510;47.942;9.442;2022-12-18T06:42:45;95602.38;;;-6.30;100.00
11487;BME280;10510;47.942;9.442;2022-12-18T06:44:46;95604.91;;;-6.30;100.00
11487;BME280;10510;47.942;9.442;2022-12-18T06:46:46;95610.84;;;-6.30;100.00
11487;BME280;10510;47.942;9.442;2022-12-18T06:48:48;95608.34;;;-6.31;100.00
11487;BME280;10510;47.942;9.442;2022-12-18T06:50:48;95616.09;;;-6.34;100.00
11487;BME280;10510;47.942;9.442;2022-12-18T06:52:49;95620.38;;;-6.35;100.00
11487;BME280;10510;47.942;9.442;2022-12-18T06:54:49;95629.78;;;-6.37;100.00
11487;BME280;10510;47.942;9.442;2022-12-18T06:56:49;95628.94;;;-6.37;100.00
11487;BME280;10510;47.942;9.442;2022-12-18T06:58:50;95629.78;;;-6.37;100.00
11487;BME280;10510;47.942;9.442;2022-12-18T07:00:50;95629.88;;;-6.40;100.00
11487;BME280;10510;47.942;9.442;2022-12-18T07:02:50;95641.00;;;-6.43;100.00
11487;BME280;10510;47.942;9.442;2022-12-18T07:04:51;95635.97;;;-6.44;100.00
11487;BME280;10510;47.942;9.442;2022-12-18T07:06:51;95637.69;;;-6.45;100.00
11487;BME280;10510;47.942;9.442;2022-12-18T07:08:53;95638.50;;;-6.44;100.00
11487;BME280;10510;47.942;9.442;2022-12-18T07:10:54;95648.59;;;-6.41;100.00
11487;BME280;10510;47.942;9.442;2022-12-18T07:12:54;95649.41;;;-6.41;100.00
11487;BME280;10510;47.942;9.442;2022-12-18T07:14:54;95645.97;;;-6.40;100.00
11487;BME280;10510;47.942;9.442;2022-12-18T07:16:55;95651.06;;;-6.40;100.00
11487;BME280;10510;47.942;9.442;2022-12-18T07:18:55;95647.63;;;-6.38;100.00
11487;BME280;10510;47.942;9.442;2022-12-18T07:20:56;95648.41;;;-6.36;100.00
11487;BME280;10510;47.942;9.442;2022-12-18T07:22:56;95648.38;;;-6.35;100.00
11487;BME280;10510;47.942;9.442;2022-12-18T07:24:57;95648.38;;;-6.35;100.00
11487;BME280;10510;47.942;9.442;2022-12-18T07:26:57;95653.38;;;-6.33;100.00
11487;BME280;10510;47.942;9.442;2022-12-18T07:28:58;95655.03;;;-6.32;100.00
11487;BME280;10510;47.942;9.442;2022-12-18T07:31:05;95669.44;;;-6.31;100.00
11487;BME280;10510;47.942;9.442;2022-12-18T07:33:06;95671.09;;;-6.30;100.00
11487;BME280;10510;47.942;9.442;2022-12-18T07:35:06;95664.38;;;-6.33;100.00
11487;BME280;10510;47.942;9.442;2022-12-18T07:37:07;95672.91;;;-6.34;100.00
11487;BME280;10510;47.942;9.442;2022-12-18T07:39:07;95676.28;;;-6.33;100.00
11487;BME280;10510;47.942;9.442;2022-12-18T07:41:11;95678.03;;;-6.35;100.00
11487;BME280;10510;47.942;9.442;2022-12-18T07:43:12;95674.75;;;-6.37;100.00
11487;BME280;10510;47.942;9.442;2022-12-18T07:45:12;95673.97;;;-6.40;100.00
11487;BME280;10510;47.942;9.442;2022-12-18T07:47:12;95677.28;;;-6.37;100.00
11487;BME280;10510;47.942;9.442;2022-12-18T07:49:12;95674.63;;;-6.34;100.00
11487;BME280;10510;47.942;9.442;2022-12-18T07:51:13;95672.13;;;-6.36;100.00
11487;BME280;10510;47.942;9.442;2022-12-18T07:53:13;95668.84;;;-6.38;100.00
11487;BME280;10510;47.942;9.442;2022-12-18T07:55:14;95677.44;;;-6.42;100.00
11487;BME280;10510;47.942;9.442;2022-12-18T07:57:15;95676.66;;;-6.44;100.00
11487;BME280;10510;47.942;9.442;2022-12-18T07:59:16;95674.91;;;-6.42;100.00
11487;BME280;10510;47.942;9.442;2022-12-18T08:01:16;95670.75;;;-6.45;100.00
11487;BME280;10510;47.942;9.442;2022-12-18T08:03:17;95672.59;;;-6.48;100.00
11487;BME280;10510;47.942;9.442;2022-12-18T08:05:17;95675.94;;;-6.48;100.00
11487;BME280;10510;47.942;9.442;2022-12-18T08:07:18;95673.28;;;-6.45;100.00
11487;BME280;10510;47.942;9.442;2022-12-18T08:09:18;95674.88;;;-6.41;100.00
11487;BME280;10510;47.942;9.442;2022-12-18T08:11:19;95676.41;;;-6.36;100.00
11487;BME280;10510;47.942;9.442;2022-12-18T08:13:20;95671.19;;;-6.33;100.00
11487;BME280;10510;47.942;9.442;2022-12-18T08:15:22;95671.97;;;-6.31;100.00
11487;BME280;10510;47.942;9.442;2022-12-18T08:17:23;95671.97;;;-6.31;100.00
11487;BME280;10510;47.942;9.442;2022-12-18T08:19:23;95678.91;;;-6.35;100.00
11487;BME280;10510;47.942;9.442;2022-12-18T08:21:26;95679.84;;;-6.37;100.00
11487;BME280;10510;47.942;9.442;2022-12-18T08:23:27;95683.34;;;-6.42;100.00
11487;BME280;10510;47.942;9.442;2022-12-18T08:25:27;95684.28;;;-6.44;100.00
11487;BME280;10510;47.942;9.442;2022-12-18T08:27:28;95680.31;;;-6.51;100.00
11487;BME280;10510;47.942;9.442;2022-12-18T08:29:28;95686.41;;;-6.55;100.00
11487;BME280;10510;47.942;9.442;2022-12-18T08:31:29;95685.56;;;-6.56;100.00
11487;BME280;10510;47.942;9.442;2022-12-18T08:33:30;95692.34;;;-6.55;100.00
11487;BME280;10510;47.942;9.442;2022-12-18T08:35:35;95690.56;;;-6.53;100.00
11487;BME280;10510;47.942;9.442;2022-12-18T08:37:35;95690.50;;;-6.51;100.00
11487;BME280;10510;47.942;9.442;2022-12-18T08:39:35;95697.09;;;-6.46;100.00
11487;BME280;10510;47.942;9.442;2022-12-18T08:41:36;95698.63;;;-6.42;100.00
11487;BME280;10510;47.942;9.442;2022-12-18T08:43:36;95700.94;;;-6.35;100.00
11487;BME280;10510;47.942;9.442;2022-12-18T08:45:55;95698.28;;;-6.32;100.00
11487;BME280;10510;47.942;9.442;2022-12-18T08:47:56;95700.78;;;-6.31;100.00
11487;BME280;10510;47.942;9.442;2022-12-18T08:49:56;95704.28;;;-6.33;100.00
11487;BME280;10510;47.942;9.442;2022-12-18T08:51:56;95707.00;;;-6.38;100.00
11487;BME280;10510;47.942;9.442;2022-12-18T08:53:57;95702.06;;;-6.43;100.00
11487;BME280;10510;47.942;9.442;2022-12-18T08:55:57;95706.22;;;-6.40;100.00
11487;BME280;10510;47.942;9.442;2022-12-18T08:57:58;95710.25;;;-6.34;100.00
11487;BME280;10510;47.942;9.442;2022-12-18T08:59:58;95710.38;;;-6.37;100.00
11487;BME280;10510;47.942;9.442;2022-12-18T09:01:58;95712.28;;;-6.44;100.00
11487;BME280;10510;47.942;9.442;2022-12-18T09:03:59;95709.75;;;-6.44;100.00
11487;BME280;10510;47.942;9.442;2022-12-18T09:05:59;95710.41;;;-6.39;100.00
11487;BME280;10510;47.942;9.442;2022-12-18T09:07:59;95707.53;;;-6.30;100.00
11487;BME280;10510;47.942;9.442;2022-12-18T09:09:59;95701.34;;;-6.23;100.00
11487;BME280;10510;47.942;9.442;2022-12-18T09:12:00;95705.28;;;-6.14;100.00
11487;BME280;10510;47.942;9.442;2022-12-18T09:14:01;95702.78;;;-6.15;100.00
11487;BME280;10510;47.942;9.442;2022-12-18T09:16:02;95693.38;;;-6.13;100.00
11487;BME280;10510;47.942;9.442;2022-12-18T09:18:03;95691.53;;;-6.10;100.00
11487;BME280;10510;47.942;9.442;2022-12-18T09:20:04;95690.75;;;-6.12;100.00
11487;BME280;10510;47.942;9.442;2022-12-18T09:22:05;95686.78;;;-6.19;100.00
11487;BME280;10510;47.942;9.442;2022-12-18T09:24:05;95686.81;;;-6.21;100.00
11487;BME280;10510;47.942;9.442;2022-12-18T09:26:06;95685.66;;;-6.12;100.00
11487;BME280;10510;47.942;9.442;2022-12-18T09:28:13;95682.06;;;-6.06;100.00
11487;BME280;10510;47.942;9.442;2022-12-18T09:30:13;95688.63;;;-6.01;100.00
11487;BME280;10510;47.942;9.442;2022-12-18T09:32:14;95694.19;;;-5.91;100.00
11487;BME280;10510;47.942;9.442;2022-12-18T09:34:15;95695.66;;;-5.85;100.00
11487;BME280;10510;47.942;9.442;2022-12-18T09:36:17;95695.56;;;-5.82;100.00
11487;BME280;10510;47.942;9.442;2022-12-18T09:38:18;95698.00;;;-5.79;100.00
11487;BME280;10510;47.942;9.442;2022-12-18T09:40:21;95689.50;;;-5.80;100.00
11487;BME280;10510;47.942;9.442;2022-12-18T09:42:22;95693.66;;;-5.77;100.00
11487;BME280;10510;47.942;9.442;2022-12-18T09:44:27;95688.63;;;-5.79;100.00
11487;BME280;10510;47.942;9.442;2022-12-18T09:46:30;95688.03;;;-5.85;100.00
11487;BME280;10510;47.942;9.442;2022-12-18T09:48:38;95685.72;;;-5.91;100.00
11487;BME280;10510;47.942;9.442;2022-12-18T09:50:42;95679.66;;;-5.89;100.00
11487;BME280;10510;47.942;9.442;2022-12-18T09:52:45;95683.78;;;-5.85;100.00
11487;BME280;10510;47.942;9.442;2022-12-18T09:55:03;95690.69;;;-5.88;100.00
11487;BME280;10510;47.942;9.442;2022-12-18T09:57:05;95685.59;;;-5.88;100.00
11487;BME280;10510;47.942;9.442;2022-12-18T10:01:21;95693.19;;;-5.87;100.00
11487;BME280;10510;47.942;9.442;2022-12-18T10:03:22;95692.47;;;-5.90;100.00
11487;BME280;10510;47.942;9.442;2022-12-18T10:08:05;95693.09;;;-5.85;100.00
11487;BME280;10510;47.942;9.442;2022-12-18T10:10:23;95692.16;;;-5.83;100.00
11487;BME280;10510;47.942;9.442;2022-12-18T10:12:46;95691.22;;;-5.80;100.00
11487;BME280;10510;47.942;9.442;2022-12-18T10:21:15;95697.09;;;-5.56;100.00
11487;BME280;10510;47.942;9.442;2022-12-18T10:27:35;95700.41;;;-5.32;100.00
11487;BME280;10510;47.942;9.442;2022-12-18T10:29:36;95706.25;;;-5.30;100.00
11487;BME280;10510;47.942;9.442;2022-12-18T10:31:36;95703.66;;;-5.29;100.00
11487;BME280;10510;47.942;9.442;2022-12-18T10:33:36;95706.13;;;-5.27;100.00
11487;BME280;10510;47.942;9.442;2022-12-18T10:35:40;95708.50;;;-5.22;100.00
11487;BME280;10510;47.942;9.442;2022-12-18T10:38:03;95709.16;;;-5.17;100.00
11487;BME280;10510;47.942;9.442;2022-12-18T10:40:15;95708.94;;;-5.13;100.00
11487;BME280;10510;47.942;9.442;2022-12-18T10:42:19;95700.38;;;-5.12;100.00
11487;BME280;10510;47.942;9.442;2022-12-18T10:44:20;95703.19;;;-5.18;100.00
11487;BME280;10510;47.942;9.442;2022-12-18T10:46:21;95704.34;;;-5.25;100.00
11487;BME280;10510;47.942;9.442;2022-12-18T10:48:22;95698.44;;;-5.26;100.00
11487;BME280;10510;47.942;9.442;2022-12-18T10:50:28;95696.53;;;-5.20;100.00
11487;BME280;10510;47.942;9.442;2022-12-18T10:52:29;95687.66;;;-5.12;100.00
11487;BME280;10510;47.942;9.442;2022-12-18T10:54:30;95685.63;;;-5.04;100.00
11487;BME280;10510;47.942;9.442;2022-12-18T10:56:35;95691.22;;;-4.95;100.00
11487;BME280;10510;47.942;9.442;2022-12-18T10:58:38;95686.81;;;-4.92;100.00
11487;BME280;10510;47.942;9.442;2022-12-18T11:00:38;95681.66;;;-4.90;100.00
11487;BME280;10510;47.942;9.442;2022-12-18T11:02:39;95685.03;;;-4.90;100.00
11487;BME280;10510;47.942;9.442;2022-12-18T11:04:51;95679.13;;;-4.90;100.00
11487;BME280;10510;47.942;9.442;2022-12-18T11:07:03;95686.69;;;-4.89;100.00
11487;BME280;10510;47.942;9.442;2022-12-18T11:09:06;95683.84;;;-4.81;100.00
11487;BME280;10510;47.942;9.442;2022-12-18T11:11:22;95680.97;;;-4.73;100.00
11487;BME280;10510;47.942;9.442;2022-12-18T11:13:25;95678.19;;;-4.69;100.00